This is the latest recevied weather packets stored in our database for station/object CA3EVY-3. If no packets are shown the sender has not sent any weather packets the latest 10 day(s).
| Time | Temp. | Humidity | Pressure | Rain* | Wind** | Luminosity | Snow |
|---|---|---|---|---|---|---|---|
| 1777760103 | 22.22° C | 36% | 918 hPa | - | - | - | - |
| 1777759204 | 23.33° C | 33% | 918 hPa | - | - | - | - |
| 1777758304 | 23.89° C | 33% | 917.8 hPa | - | - | - | - |
| 1777757403 | 25° C | 30% | 917.7 hPa | - | - | - | - |
| 1777756503 | 25° C | 30% | 917.6 hPa | - | - | - | - |
| 1777755604 | 25.56° C | 29% | 917.4 hPa | - | - | - | - |
| 1777754704 | 26.11° C | 29% | 917.2 hPa | - | - | - | - |
| 1777753808 | 26.11° C | 30% | 917.3 hPa | - | - | - | - |
| 1777752908 | 26.11° C | 30% | 917.6 hPa | - | - | - | - |
| 1777752004 | 26.11° C | 32% | 917.6 hPa | - | - | - | - |
| 1777751104 | 26.11° C | 32% | 917.5 hPa | - | - | - | - |
| 1777750203 | 25.56° C | 32% | 917.5 hPa | - | - | - | - |
| 1777749303 | 25.56° C | 32% | 917.2 hPa | - | - | - | - |
| 1777748404 | 25.56° C | 33% | 917.2 hPa | - | - | - | - |
| 1777747504 | 25.56° C | 33% | 917.2 hPa | - | - | - | - |
| 1777746603 | 25° C | 35% | 917.2 hPa | - | - | - | - |
| 1777745703 | 24.44° C | 35% | 917.2 hPa | - | - | - | - |
| 1777744804 | 23.89° C | 39% | 917.3 hPa | - | - | - | - |
| 1777743904 | 23.89° C | 39% | 917.5 hPa | - | - | - | - |
| 1777743003 | 22.78° C | 41% | 917.4 hPa | - | - | - | - |
| 1777742104 | 22.78° C | 41% | 917.4 hPa | - | - | - | - |
| 1777741205 | 21.67° C | 45% | 917.7 hPa | - | - | - | - |
| 1777740303 | 21.11° C | 45% | 917.9 hPa | - | - | - | - |
| 1777739403 | 20.56° C | 48% | 918 hPa | - | - | - | - |
| 1777738503 | 20° C | 48% | 918.2 hPa | - | - | - | - |
* Rain since midnight (hover to see other rain measurements)
** Current wind speed in m/s (hover to see current wind gust speed)